Arabela, New Mexico
Current Conditions -  °F | °C
As of 8:51 PM on Wednesday 22 Oct 2014 (Local Time) from KROW Reporting Station
Clear Clear  
Wind Chill: 61°   Ceiling: Unl
Heat Index: 61°   Visibility: 10mi
Dew Point: 58°   Wind: 7mph
Humidity: 90%   Direction: 190°S
Pressure: 30.1"   Gusts: NA
Location:  33.282°N, 105.13°W
Report Text: KROW 230251Z AUTO 19006KT 10SM CLR 16/14 A3010 RMK AO2 SLP148 T01610144 52013
Loading
Personal Weather Stations






























Interactive Weather Map
Tropical Storm Tracking
New forecast layout! Learn more

10-Day Weather Forecast

Advertisements
Track Severe Weather on mobile